.
WxDataArchive / Data Records for 2006-03-20
2006-03-19 March 2006 2006-03-21

Data Records for Monday, 20 March 2006

Time	Temp	Chill	HIndex	Humid	Dewpt	 Wind 	HiWind	WindDir	Rain 	Barom 
-----	----	-----	------	-----	-----	------	------	-------	-----	----- 
00:00	29.1	29.1	29.1	71	20.9	0	2	270	0.00	30.213 
00:05	29.1	29.1	29.1	70	20.6	0	2	292	0.00	30.213 
00:10	29.3	29.3	29.3	69	20.4	0	1	292	0.00	30.213 
00:15	29.3	29.3	29.3	68	20.1	0	2	292	0.00	30.212 
00:20	29.3	29.3	29.3	67	19.7	0	3	292	0.00	30.212 
00:25	29.3	29.3	29.3	66	19.4	0	2	315	0.00	30.212 
00:30	29.3	29.3	29.3	66	19.4	0	1	315	0.00	30.212 
00:35	29.1	29.1	29.1	65	18.8	0	1	315	0.00	30.212 
00:40	29.0	29.0	29.0	65	18.7	0	1	315	0.00	30.212 
00:45	29.0	29.0	29.0	63	18.0	0	1	315	0.00	30.227 
00:50	28.8	28.8	28.8	63	17.8	0	1	315	0.00	30.227 
00:55	28.7	28.7	28.7	63	17.7	0	1	315	0.00	30.227 
01:00	28.4	28.4	28.4	63	17.4	0	1	315	0.00	30.234 
01:05	28.4	28.4	28.4	62	17.1	0	1	315	0.00	30.234 
01:10	28.4	28.4	28.4	61	16.7	0	1	315	0.00	30.234 
01:15	28.4	28.4	28.4	60	16.3	0	0	---	0.00	30.227 
01:20	28.7	28.7	28.7	59	16.2	0	1	315	0.00	30.227 
01:25	28.8	28.8	28.8	58	15.9	0	3	315	0.00	30.227 
01:30	29.0	29.0	29.0	57	15.7	0	3	338	0.00	30.220 
01:35	29.3	29.3	29.3	57	16.0	0	3	0	0.00	30.220 
01:40	29.3	29.3	29.3	56	15.6	0	2	0	0.00	30.220 
01:45	29.1	29.1	29.1	57	15.8	0	1	0	0.00	30.214 
01:50	29.1	29.1	29.1	56	15.4	0	2	22	0.00	30.214 
01:55	29.1	29.1	29.1	57	15.8	0	1	22	0.00	30.214 
02:00	29.1	29.1	29.1	56	15.4	0	2	22	0.00	30.216 
02:05	29.1	29.1	29.1	56	15.4	0	3	22	0.00	30.216 
02:10	29.1	29.1	29.1	56	15.4	0	2	22	0.00	30.216 
02:15	29.3	29.3	29.3	56	15.6	0	3	22	0.00	30.224 
02:20	29.1	29.1	29.1	56	15.4	0	1	22	0.00	30.224 
02:25	29.0	29.0	29.0	56	15.3	0	2	22	0.00	30.224 
02:30	29.1	29.1	29.1	56	15.4	0	2	22	0.00	30.216 
02:35	29.0	29.0	29.0	56	15.3	0	2	0	0.00	30.216 
02:40	29.0	29.0	29.0	55	14.9	0	2	0	0.00	30.216 
02:45	29.1	29.1	29.1	55	15.0	1	3	0	0.00	30.211 
02:50	29.1	29.1	29.1	56	15.4	0	2	22	0.00	30.211 
02:55	29.0	29.0	29.0	56	15.3	1	2	22	0.00	30.211 
03:00	29.0	29.0	29.0	56	15.3	0	2	338	0.00	30.207 
03:05	28.8	28.8	28.8	57	15.5	0	2	0	0.00	30.207 
03:10	28.7	28.7	28.7	57	15.4	0	3	22	0.00	30.207 
03:15	28.5	28.5	28.5	57	15.2	1	2	0	0.00	30.205 
03:20	28.7	28.7	28.7	57	15.4	1	4	45	0.00	30.205 
03:25	28.7	28.7	28.7	57	15.4	0	3	292	0.00	30.205 
03:30	28.5	28.5	28.5	58	15.6	0	2	0	0.00	30.201 
03:35	28.5	28.5	28.5	58	15.6	1	3	22	0.00	30.201 
03:40	28.5	28.5	28.5	58	15.6	1	5	292	0.00	30.201 
03:45	28.4	28.4	28.4	58	15.5	1	2	338	0.00	30.205 
03:50	28.4	28.4	28.4	58	15.5	0	2	22	0.00	30.205 
03:55	28.2	28.2	28.2	59	15.7	0	1	22	0.00	30.205 
04:00	28.1	28.1	28.1	59	15.6	0	1	22	0.00	30.211 
04:05	27.9	27.9	27.9	60	15.8	0	2	22	0.00	30.211 
04:10	27.8	27.8	27.8	61	16.1	0	2	22	0.00	30.211 
04:15	27.6	27.6	27.6	61	15.9	0	2	315	0.00	30.213 
04:20	27.6	27.6	27.6	61	15.9	0	2	315	0.00	30.213 
04:25	27.6	27.6	27.6	61	15.9	0	2	315	0.00	30.213 
04:30	27.5	27.5	27.5	62	16.2	0	1	315	0.00	30.212 
04:35	27.5	27.5	27.5	62	16.2	0	2	22	0.00	30.212 
04:40	27.3	27.3	27.3	62	16.0	0	3	315	0.00	30.212 
04:45	27.3	27.3	27.3	62	16.0	1	3	135	0.00	30.212 
04:50	27.2	27.2	27.2	62	15.9	0	2	90	0.00	30.212 
04:55	27.2	27.2	27.2	62	15.9	1	4	112	0.00	30.212 
05:00	27.2	27.2	27.2	62	15.9	1	4	112	0.00	30.209 
05:05	27.3	27.3	27.3	62	16.0	1	3	68	0.00	30.209 
05:10	27.3	27.3	27.3	62	16.0	1	3	112	0.00	30.209 
05:15	27.3	27.3	27.3	63	16.4	1	4	158	0.00	30.211 
05:20	27.2	27.2	27.2	63	16.3	1	4	45	0.00	30.211 
05:25	27.2	27.2	27.2	63	16.3	1	3	90	0.00	30.211 
05:30	27.2	27.2	27.2	62	15.9	2	5	90	0.00	30.211 
05:35	27.2	27.2	27.2	63	16.3	1	3	90	0.00	30.211 
05:40	27.0	27.0	27.0	63	16.1	2	4	90	0.00	30.211 
05:45	27.0	27.0	27.0	62	15.7	1	5	68	0.00	30.227 
05:50	27.0	27.0	27.0	63	16.1	0	3	68	0.00	30.227 
05:55	26.9	26.9	26.9	64	16.4	1	3	90	0.00	30.227 
06:00	26.7	26.7	26.7	64	16.2	0	1	112	0.00	30.227 
06:05	26.7	26.7	26.7	64	16.2	0	3	90	0.00	30.227 
06:10	26.6	26.6	26.6	65	16.4	0	3	68	0.00	30.227 
06:15	26.4	26.4	26.4	65	16.3	1	3	45	0.00	30.227 
06:20	26.4	26.4	26.4	65	16.3	1	3	68	0.00	30.227 
06:25	26.4	26.4	26.4	66	16.6	1	3	112	0.00	30.227 
06:30	26.3	26.3	26.3	66	16.5	1	3	68	0.00	30.217 
06:35	26.3	26.3	26.3	66	16.5	1	3	68	0.00	30.217 
06:40	26.3	26.3	26.3	66	16.5	1	4	112	0.00	30.217 
06:45	26.1	26.1	26.1	66	16.3	1	4	90	0.00	30.216 
06:50	26.1	26.1	26.1	66	16.3	1	3	112	0.00	30.216 
06:55	26.1	26.1	26.1	66	16.3	1	3	112	0.00	30.216 
07:00	26.0	26.0	26.0	66	16.2	0	4	45	0.00	30.218 
07:05	26.1	26.1	26.1	66	16.3	1	2	45	0.00	30.218 
07:10	26.1	26.1	26.1	66	16.3	1	3	112	0.00	30.218 
07:15	26.3	26.3	26.3	66	16.5	1	3	112	0.00	30.217 
07:20	26.3	26.3	26.3	65	16.2	1	3	90	0.00	30.217 
07:25	26.4	26.4	26.4	66	16.6	1	3	112	0.00	30.217 
07:30	26.6	26.6	26.6	65	16.4	1	4	68	0.00	30.236 
07:35	26.7	26.7	26.7	65	16.5	1	4	90	0.00	30.236 
07:40	26.7	26.7	26.7	64	16.2	1	3	45	0.00	30.236 
07:45	26.9	26.9	26.9	64	16.4	1	5	45	0.00	30.236 
07:50	27.0	27.0	27.0	65	16.8	1	3	68	0.00	30.236 
07:55	27.2	27.2	27.2	63	16.3	1	4	90	0.00	30.236 
08:00	27.3	27.3	27.3	63	16.4	2	5	90	0.00	30.239 
08:05	27.5	27.5	27.5	62	16.2	2	5	45	0.00	30.239 
08:10	27.6	27.6	27.6	64	17.0	2	7	90	0.00	30.239 
08:15	27.8	27.8	27.8	62	16.5	2	7	45	0.00	30.241 
08:20	27.8	27.8	27.8	62	16.5	2	5	45	0.00	30.241 
08:25	27.9	27.9	27.9	62	16.6	2	6	68	0.00	30.241 
08:30	28.1	28.1	28.1	62	16.8	2	4	68	0.00	30.249 
08:35	28.2	28.2	28.2	62	16.9	2	5	45	0.00	30.249 
08:40	28.4	28.4	28.4	61	16.7	3	7	45	0.00	30.249 
08:45	28.4	28.4	28.4	61	16.7	2	6	68	0.00	30.238 
08:50	28.7	28.7	28.7	62	17.4	2	5	45	0.00	30.238 
08:55	28.8	28.8	28.8	61	17.1	2	6	68	0.00	30.238 
09:00	29.0	29.0	29.0	61	17.3	3	10	112	0.00	30.233 
09:05	29.1	24.7	29.1	59	16.6	4	14	22	0.00	30.233 
09:10	29.3	29.3	29.3	59	16.8	3	11	22	0.00	30.233 
09:15	29.5	29.5	29.5	59	17.0	3	7	68	0.00	30.240 
09:20	30.0	30.0	30.0	61	18.2	2	6	22	0.00	30.240 
09:25	30.1	25.9	30.1	58	17.1	4	10	112	0.00	30.240 
09:30	30.3	26.1	30.3	58	17.3	4	10	90	0.00	30.231 
09:35	30.4	30.4	30.4	57	17.0	3	10	22	0.00	30.231 
09:40	30.6	30.6	30.6	57	17.2	3	7	68	0.00	30.231 
09:45	30.6	25.4	30.6	57	17.2	5	10	112	0.00	30.225 
09:50	30.7	25.5	30.7	58	17.7	5	12	112	0.00	30.225 
09:55	31.2	27.2	31.2	57	17.8	4	9	90	0.00	30.225 
10:00	31.5	27.5	31.5	58	18.4	4	11	112	0.00	30.235 
10:05	31.8	27.8	31.8	57	18.3	4	9	90	0.00	30.235 
10:10	32.1	32.1	32.1	57	18.6	2	5	68	0.00	30.235 
10:15	32.2	28.3	32.2	56	18.3	4	9	112	0.00	30.237 
10:20	32.2	28.3	32.2	55	17.9	4	10	112	0.00	30.237 
10:25	32.5	32.5	32.5	56	18.6	2	5	90	0.00	30.237 
10:30	32.7	28.9	32.7	54	17.9	4	7	112	0.00	30.243 
10:35	32.5	27.7	32.5	56	18.6	5	10	112	0.00	30.243 
10:40	32.7	32.7	32.7	55	18.3	3	6	90	0.00	30.243 
10:45	32.7	28.9	32.7	56	18.8	4	7	90	0.00	30.244 
10:50	32.9	29.1	32.9	56	18.9	4	9	112	0.00	30.244 
10:55	33.1	33.1	33.1	54	18.3	3	6	22	0.00	30.244 
11:00	33.5	33.5	33.5	53	18.2	2	9	22	0.00	30.241 
11:05	33.1	28.4	33.1	53	17.9	5	9	112	0.00	30.241 
11:10	33.2	33.2	33.2	56	19.2	2	7	90	0.00	30.241 
11:15	33.7	33.7	33.7	53	18.4	2	9	45	0.00	30.242 
11:20	34.0	34.0	34.0	54	19.1	3	7	90	0.00	30.242 
11:25	34.3	34.3	34.3	53	19.0	2	7	112	0.00	30.242 
11:30	34.4	30.8	34.4	51	18.2	4	11	112	0.00	30.235 
11:35	34.1	34.1	34.1	52	18.3	3	6	112	0.00	30.235 
11:40	34.1	30.5	34.1	51	17.9	4	6	112	0.00	30.235 
11:45	34.4	30.8	34.4	50	17.7	4	7	112	0.00	30.232 
11:50	34.6	34.6	34.6	50	17.9	3	7	68	0.00	30.232 
11:55	34.6	34.6	34.6	50	17.9	3	7	112	0.00	30.232 
12:00	34.4	29.9	34.4	50	17.7	5	10	112	0.00	30.222 
12:05	34.6	31.1	34.6	50	17.9	4	9	112	0.00	30.222 
12:10	34.6	34.6	34.6	51	18.4	3	6	90	0.00	30.222 
12:15	35.2	35.2	35.2	50	18.4	3	10	90	0.00	30.222 
12:20	35.3	31.9	35.3	49	18.1	4	9	112	0.00	30.222 
12:25	35.3	35.3	35.3	50	18.5	3	6	112	0.00	30.222 
12:30	35.5	32.1	35.5	51	19.2	4	11	112	0.00	30.207 
12:35	35.5	35.5	35.5	50	18.7	2	7	90	0.00	30.207 
12:40	35.8	35.8	35.8	48	18.1	3	6	45	0.00	30.207 
12:45	35.5	31.2	35.5	48	17.8	5	10	112	0.00	30.220 
12:50	35.2	30.8	35.2	49	18.0	5	10	112	0.00	30.220 
12:55	35.3	31.9	35.3	49	18.1	4	7	112	0.00	30.220 
13:00	35.8	31.5	35.8	47	17.6	5	13	90	0.00	30.214 
13:05	35.5	31.2	35.5	47	17.3	5	11	112	0.00	30.214 
13:10	35.3	31.0	35.3	48	17.6	5	10	112	0.00	30.214 
13:15	35.6	35.6	35.6	47	17.4	3	7	112	0.00	30.216 
13:20	35.9	35.9	35.9	48	18.1	3	7	22	0.00	30.216 
13:25	36.0	36.0	36.0	47	17.7	3	6	112	0.00	30.216 
13:30	36.0	36.0	36.0	49	18.7	3	7	112	0.00	30.216 
13:35	36.2	36.2	36.2	48	18.4	3	6	112	0.00	30.216 
13:40	36.6	33.4	36.6	47	18.3	4	13	112	0.00	30.216 
13:45	36.6	33.4	36.6	48	18.8	4	11	112	0.00	30.216 
13:50	36.6	36.6	36.6	48	18.8	3	8	90	0.00	30.216 
13:55	36.8	36.8	36.8	47	18.5	3	10	112	0.00	30.216 
14:00	36.6	32.5	36.6	47	18.3	5	10	112	0.00	30.201 
14:05	36.9	36.9	36.9	50	20.0	3	10	22	0.00	30.201 
14:10	36.9	33.7	36.9	49	19.5	4	12	112	0.00	30.201 
14:15	37.0	33.9	37.0	47	18.7	4	9	22	0.00	30.191 
14:20	37.2	37.2	37.2	50	20.3	2	6	45	0.00	30.191 
14:25	37.2	34.1	37.2	50	20.3	4	10	112	0.00	30.191 
14:30	37.3	37.3	37.3	48	19.4	2	5	112	0.00	30.175 
14:35	37.2	33.2	37.2	49	19.8	5	11	90	0.00	30.175 
14:40	36.9	33.7	36.9	49	19.5	4	9	112	0.00	30.175 
14:45	37.0	37.0	37.0	53	21.5	3	7	90	0.00	30.169 
14:50	37.0	32.2	37.0	49	19.6	6	12	112	0.00	30.169 
14:55	36.9	32.8	36.9	50	20.0	5	10	112	0.00	30.169 
15:00	37.3	37.3	37.3	49	19.9	3	7	68	0.00	30.164 
15:05	37.5	34.4	37.5	50	20.6	4	10	22	0.00	30.164 
15:10	37.3	34.2	37.3	50	20.4	4	10	112	0.00	30.164 
15:15	37.3	34.2	37.3	52	21.3	4	9	112	0.00	30.161 
15:20	37.6	37.6	37.6	50	20.7	3	10	90	0.00	30.161 
15:25	37.6	32.9	37.6	50	20.7	6	12	112	0.00	30.161 
15:30	37.6	32.9	37.6	49	20.2	6	12	112	0.00	30.154 
15:35	37.8	34.8	37.8	51	21.3	4	10	112	0.00	30.154 
15:40	37.6	33.7	37.6	48	19.7	5	11	112	0.00	30.154 
15:45	37.6	37.6	37.6	50	20.7	2	6	112	0.00	30.145 
15:50	37.8	37.8	37.8	51	21.3	3	7	90	0.00	30.145 
15:55	37.6	37.6	37.6	51	21.1	3	6	112	0.00	30.145 
16:00	37.8	34.8	37.8	49	20.4	4	10	112	0.00	30.140 
16:05	37.6	34.5	37.6	51	21.1	4	12	112	0.00	30.140 
16:10	37.6	34.5	37.6	51	21.1	4	10	45	0.00	30.140 
16:15	37.6	34.5	37.6	50	20.7	4	10	90	0.00	30.139 
16:20	37.9	37.9	37.9	50	20.9	3	7	90	0.00	30.139 
16:25	37.6	33.7	37.6	49	20.2	5	11	112	0.00	30.139 
16:30	37.6	34.5	37.6	51	21.1	4	10	112	0.00	30.133 
16:35	37.6	37.6	37.6	52	21.6	3	7	22	0.00	30.133 
16:40	37.6	33.7	37.6	50	20.7	5	12	90	0.00	30.133 
16:45	37.5	32.1	37.5	50	20.6	7	14	112	0.00	30.124 
16:50	37.5	33.5	37.5	50	20.6	5	13	112	0.00	30.124 
16:55	37.5	32.8	37.5	51	21.0	6	14	112	0.00	30.124 
17:00	37.6	34.5	37.6	50	20.7	4	10	112	0.00	30.125 
17:05	37.6	34.5	37.6	50	20.7	4	10	112	0.00	30.125 
17:10	37.6	33.7	37.6	49	20.2	5	12	112	0.00	30.125 
17:15	37.6	34.5	37.6	50	20.7	4	12	112	0.00	30.125 
17:20	37.6	33.7	37.6	50	20.7	5	12	112	0.00	30.125 
17:25	37.6	34.5	37.6	52	21.6	4	11	90	0.00	30.125 
17:30	37.5	37.5	37.5	51	21.0	3	13	112	0.00	30.125 
17:35	37.5	34.4	37.5	51	21.0	4	10	112	0.00	30.125 
17:40	37.5	34.4	37.5	52	21.5	4	8	90	0.00	30.125 
17:45	37.3	32.5	37.3	52	21.3	6	14	112	0.00	30.128 
17:50	37.2	32.4	37.2	52	21.2	6	11	112	0.00	30.128 
17:55	37.0	32.9	37.0	52	21.0	5	10	112	0.00	30.128 
18:00	37.0	37.0	37.0	53	21.5	3	10	112	0.00	30.135 
18:05	36.9	33.7	36.9	54	21.8	4	12	112	0.00	30.135 
18:10	36.9	33.7	36.9	54	21.8	4	13	90	0.00	30.135 
18:15	36.8	36.8	36.8	54	21.7	3	7	90	0.00	30.124 
18:20	36.6	36.6	36.6	54	21.5	3	9	112	0.00	30.124 
18:25	36.3	31.4	36.3	54	21.3	6	12	112	0.00	30.124 
18:30	36.2	32.0	36.2	54	21.2	5	11	112	0.00	30.121 
18:35	36.0	31.0	36.0	54	21.0	6	13	112	0.00	30.121 
18:40	35.9	35.9	35.9	55	21.3	3	9	90	0.00	30.121 
18:45	35.8	35.8	35.8	56	21.7	3	7	90	0.00	30.126 
18:50	35.6	32.2	35.6	56	21.5	4	11	112	0.00	30.126 
18:55	35.5	32.1	35.5	56	21.4	4	10	90	0.00	30.126 
19:00	35.3	35.3	35.3	57	21.6	3	6	112	0.00	30.126 
19:05	35.2	31.8	35.2	57	21.5	4	7	112	0.00	30.126 
19:10	34.9	34.9	34.9	58	21.6	2	5	90	0.00	30.126 
19:15	34.7	34.7	34.7	58	21.5	3	6	112	0.00	30.126 
19:20	34.6	34.6	34.6	58	21.4	3	9	112	0.00	30.126 
19:25	34.4	34.4	34.4	59	21.6	3	6	112	0.00	30.126 
19:30	34.1	34.1	34.1	59	21.3	3	6	112	0.00	30.114 
19:35	34.0	30.4	34.0	58	20.8	4	11	90	0.00	30.114 
19:40	33.8	29.2	33.8	58	20.6	5	12	112	0.00	30.114 
19:45	33.5	27.3	33.5	59	20.7	7	12	112	0.00	30.114 
19:50	33.2	27.7	33.2	59	20.4	6	13	90	0.00	30.114 
19:55	32.9	28.1	32.9	61	20.9	5	12	112	0.00	30.114 
20:00	32.7	26.3	32.7	61	20.8	7	13	112	0.00	30.111 
20:05	32.4	26.0	32.4	62	20.9	7	14	112	0.00	30.111 
20:10	32.1	25.6	32.1	63	20.9	7	15	112	0.00	30.111 
20:15	31.8	25.3	31.8	64	21.0	7	15	112	0.00	30.114 
20:20	31.6	25.8	31.6	64	20.8	6	12	112	0.00	30.114 
20:25	31.3	24.7	31.3	65	20.9	7	13	112	0.00	30.114 
20:30	31.2	24.5	31.2	65	20.8	7	13	112	0.00	30.129 
20:35	31.0	24.3	31.0	65	20.6	7	12	112	0.00	30.129 
20:40	30.9	25.8	30.9	67	21.3	5	9	112	0.00	30.129 
20:45	30.6	24.6	30.6	67	21.0	6	14	112	0.00	30.115 
20:50	30.4	22.9	30.4	67	20.8	8	16	112	0.00	30.115 
20:55	30.3	22.8	30.3	67	20.7	8	14	90	0.00	30.115 
21:00	30.1	22.5	30.1	67	20.5	8	12	112	0.00	30.126 
21:05	29.8	22.8	29.8	68	20.5	7	13	90	0.00	30.126 
21:10	29.7	22.7	29.7	68	20.5	7	14	112	0.00	30.126 
21:15	29.5	22.5	29.5	68	20.3	7	14	112	0.00	30.122 
21:20	29.4	22.4	29.4	68	20.2	7	15	112	0.00	30.122 
21:25	29.3	22.2	29.3	69	20.4	7	12	90	0.00	30.122 
21:30	29.1	22.8	29.1	69	20.2	6	12	112	0.00	30.115 
21:35	29.0	21.2	29.0	69	20.1	8	17	90	0.00	30.115 
21:40	28.8	21.6	28.8	69	19.9	7	14	112	0.00	30.115 
21:45	28.7	21.5	28.7	70	20.2	7	15	90	0.00	30.109 
21:50	28.7	21.5	28.7	70	20.2	7	17	112	0.00	30.109 
21:55	28.5	22.1	28.5	70	20.0	6	13	112	0.00	30.109 
22:00	28.4	21.2	28.4	70	19.9	7	13	112	0.00	30.114 
22:05	28.4	21.9	28.4	71	20.2	6	12	90	0.00	30.114 
22:10	28.2	19.6	28.2	71	20.0	9	15	112	0.00	30.114 
22:15	28.1	20.8	28.1	71	19.9	7	13	112	0.00	30.115 
22:20	27.9	21.3	27.9	72	20.1	6	14	112	0.00	30.115 
22:25	27.8	20.4	27.8	71	19.6	7	14	90	0.00	30.115 
22:30	27.6	21.0	27.6	72	19.8	6	12	112	0.00	30.114 
22:35	27.6	21.0	27.6	72	19.8	6	14	112	0.00	30.114 
22:40	27.5	20.1	27.5	72	19.7	7	15	112	0.00	30.114 
22:45	27.3	20.6	27.3	72	19.5	6	14	112	0.00	30.111 
22:50	27.3	19.8	27.3	72	19.5	7	14	90	0.00	30.111 
22:55	27.3	19.8	27.3	73	19.8	7	12	112	0.00	30.111 
23:00	27.3	19.8	27.3	72	19.5	7	13	90	0.00	30.112 
23:05	27.3	21.6	27.3	72	19.5	5	10	90	0.00	30.112 
23:10	27.3	19.8	27.3	72	19.5	7	13	112	0.00	30.112 
23:15	27.3	20.6	27.3	72	19.5	6	14	112	0.00	30.110 
23:20	27.2	19.7	27.2	73	19.7	7	15	90	0.00	30.110 
23:25	27.2	22.5	27.2	73	19.7	4	9	90	0.00	30.110 
23:30	27.2	27.2	27.2	74	20.0	3	10	90	0.00	30.095 
23:35	27.3	21.6	27.3	73	19.8	5	13	112	0.00	30.095 
23:40	27.3	19.8	27.3	72	19.5	7	13	112	0.00	30.095 
23:45	27.3	21.6	27.3	72	19.5	5	13	112	0.00	30.089 
23:50	27.2	21.4	27.2	73	19.7	5	10	90	0.00	30.089 
23:55	27.2	20.5	27.2	72	19.4	6	13	90	0.00	30.089 

CoCoRaHS
IN-AL-39
A2 Web Hosting
Creative Commons License
GoDaddy
Look for:

loaded 2017-10-16 18:15:58 • last modified 2010-11-18 10:43:29
Privacy PolicyDisclaimer
• wx.awcolley.com is powered by PmWiki v.2002016 •
• all content (unless otherwise noted) © 2017 A W Colley